الصفحة الرئيسية
METAR-TAF:

METAR-TAF

مطار :

مطار جناح الدولي

كراتشي, باكستان

دائرة عرض: 24-54N, خط طول: 067-08E, ارتفاع: 21 متر

مراقبة الطقس الحالي

تاريخ ووقت الإصدار 42 دقيقة قبل الساعة 09:55UTC
ريح 10 عقدة من الشمال الشرقي
درجة الحرارة 25°درجة مئوية
الرطوبة 18%
ضغط 1021 hPa
الرؤية: 8000 متر

METAR: OPKC 140955Z 05010KT 8000 NSC 25/M01 Q1021 NOSIG

زمن: 15:37 (10:37 UTC)

توقعات

تاريخ ووقت الإصدار 4ساعات و 7 دقيقة قبل الساعة 06:30UTC
التوقعات صالحة من14 الساعة 09 UTC إلى 14 الساعة 18 UTC
ريح 12 عقدة من الشمال الشرقي تتزايد حتى 22 عقدة
الرؤية: 6000 متر

TAF: OPKC 140630Z 1409/1418 05012G22KT 6000 NSC

أرصاد الطقس والتوقعات من أكثر من 4000 مطار (تقارير الطقس للمطار METAR والتنبؤ بالطقس بالمطارTAF).

المحطات المتاحة هي النقط الصفراء والحمراء على الخريطة.

حرك المؤشر فوق النقطة لمعرفة اسم المحطة.

ثم انقر لمعرفة أرصاد وتوقعات الطقس.

لتغيير الخارطة: اضغط على الأزرار الخضراء مع رمز الصليب الأسود للتكبير. على الزر الأخضر مع شرطة للتصغير، أو على الأسهم الخضراء للخرائط المجاورة.


METAR-TAF: